Impacts METAR Board INFO
IDs:

KJFK - New York/Kennedy Int, NY, US

Updated at: 1048 UTC 20 Jan 2018
Potential Impact None Slight Moderate High
Time19/22Z 19/23Z 20/00Z 20/01Z 20/02Z 20/03Z 20/04Z 20/05Z 20/06Z 20/07Z 20/08Z 20/09Z 20/10Z
VIS10 10 10 10 10 10 10 10 10 10 10 10 10
CIG260 260 -- -- -- -- -- -- -- -- -- -- --
CoverBKNBKNSCTFEWSCTSCTSCTFEWFEWFEWFEWFEWFEW
FltCatVFRVFRVFRVFRVFRVFRVFRVFRVFRVFRVFRVFRVFR
WX--------------------------
WDir240250250220230190200220210210220230240
WSpd8 10 7 5 6 4 9 9 8 7 5 8 12
WGst-- -- -- -- -- -- -- -- -- -- -- -- --
Raw hourly METARs
KJFK 192151Z 24008KT 10SM SCT200 BKN260 01/M07 A3000 RMK AO2 SLP159 T00111072
KJFK 192251Z 25010KT 10SM SCT190 BKN260 02/M07 A3000 RMK AO2 SLP158 T00221072
KJFK 192351Z 25007KT 10SM SCT260 02/M07 A3001 RMK AO2 SLP160 T00221067 10033 20006 53002
KJFK 200051Z 22005KT 10SM FEW250 00/M05 A3000 RMK AO2 SLP160 T00001050
KJFK 200151Z 23006KT 10SM SCT250 02/M06 A3000 RMK AO2 SLP159 T00171056
KJFK 200251Z 19004KT 10SM SCT250 01/M06 A3000 RMK AO2 SLP158 T00111056 58002
KJFK 200351Z 20009KT 10SM SCT250 01/M03 A2998 RMK AO2 SLP153 T00061033
KJFK 200451Z 22009KT 10SM FEW250 02/M05 A2996 RMK AO2 SLP145 T00171050 400331056
KJFK 200551Z 21008KT 10SM FEW250 01/M05 A2995 RMK AO2 SLP140 T00061050 10022 21006 56018
KJFK 200651Z 21007KT 10SM FEW250 M01/M04 A2994 RMK AO2 SLP136 T10061044
KJFK 200751Z 22005KT 10SM FEW250 M01/M05 A2993 RMK AO2 SLP133 T10061050
KJFK 200851Z 23008KT 10SM FEW250 M01/M05 A2991 RMK AO2 SLP128 T10061050 58012
KJFK 200951Z 24012KT 10SM FEW250 01/M04 A2990 RMK AO2 SLP126 T00061044